sensor_id;sensor_type;location;lat;lon;timestamp;temperature;humidity
56478;DHT22;42382;53.210;5.772;2023-11-19T00:01:31;11.60;97.00
56478;DHT22;42382;53.210;5.772;2023-11-19T00:03:58;11.60;97.00
56478;DHT22;42382;53.210;5.772;2023-11-19T00:06:23;11.70;97.10
56478;DHT22;42382;53.210;5.772;2023-11-19T00:08:50;11.60;97.10
56478;DHT22;42382;53.210;5.772;2023-11-19T00:11:15;11.60;97.10
56478;DHT22;42382;53.210;5.772;2023-11-19T00:13:41;11.60;97.00
56478;DHT22;42382;53.210;5.772;2023-11-19T00:16:07;11.60;97.00
56478;DHT22;42382;53.210;5.772;2023-11-19T00:18:35;11.60;97.10
56478;DHT22;42382;53.210;5.772;2023-11-19T00:21:04;11.60;97.00
56478;DHT22;42382;53.210;5.772;2023-11-19T00:23:30;11.60;97.10
56478;DHT22;42382;53.210;5.772;2023-11-19T00:25:56;11.70;97.20
56478;DHT22;42382;53.210;5.772;2023-11-19T00:28:21;11.80;97.20
56478;DHT22;42382;53.210;5.772;2023-11-19T00:30:47;11.70;97.10
56478;DHT22;42382;53.210;5.772;2023-11-19T00:33:12;11.80;97.20
56478;DHT22;42382;53.210;5.772;2023-11-19T00:35:37;11.80;97.10
56478;DHT22;42382;53.210;5.772;2023-11-19T00:38:03;11.80;97.20
56478;DHT22;42382;53.210;5.772;2023-11-19T00:40:29;11.80;97.20
56478;DHT22;42382;53.210;5.772;2023-11-19T00:42:54;11.80;97.20
56478;DHT22;42382;53.210;5.772;2023-11-19T00:45:20;11.90;97.30
56478;DHT22;42382;53.210;5.772;2023-11-19T00:47:46;11.90;97.30
56478;DHT22;42382;53.210;5.772;2023-11-19T00:50:11;11.90;97.30
56478;DHT22;42382;53.210;5.772;2023-11-19T00:52:41;11.90;97.30
56478;DHT22;42382;53.210;5.772;2023-11-19T00:55:06;11.90;97.30
56478;DHT22;42382;53.210;5.772;2023-11-19T00:57:32;11.90;97.30
56478;DHT22;42382;53.210;5.772;2023-11-19T00:59:58;11.90;97.30
56478;DHT22;42382;53.210;5.772;2023-11-19T01:02:24;11.90;97.30
56478;DHT22;42382;53.210;5.772;2023-11-19T01:04:49;11.90;97.20
56478;DHT22;42382;53.210;5.772;2023-11-19T01:07:15;11.90;97.30
56478;DHT22;42382;53.210;5.772;2023-11-19T01:09:42;11.90;97.20
56478;DHT22;42382;53.210;5.772;2023-11-19T01:12:09;11.80;97.20
56478;DHT22;42382;53.210;5.772;2023-11-19T01:14:35;11.80;97.20
56478;DHT22;42382;53.210;5.772;2023-11-19T01:17:01;11.90;97.20
56478;DHT22;42382;53.210;5.772;2023-11-19T01:19:27;11.80;97.20
56478;DHT22;42382;53.210;5.772;2023-11-19T01:21:54;11.80;97.20
56478;DHT22;42382;53.210;5.772;2023-11-19T01:24:19;11.80;97.20
56478;DHT22;42382;53.210;5.772;2023-11-19T01:26:45;11.70;97.20
56478;DHT22;42382;53.210;5.772;2023-11-19T01:29:12;11.70;97.20
56478;DHT22;42382;53.210;5.772;2023-11-19T01:31:45;11.70;97.20
56478;DHT22;42382;53.210;5.772;2023-11-19T01:34:11;11.70;97.20
56478;DHT22;42382;53.210;5.772;2023-11-19T01:36:39;11.70;97.20
56478;DHT22;42382;53.210;5.772;2023-11-19T01:39:05;11.70;97.10
56478;DHT22;42382;53.210;5.772;2023-11-19T01:41:34;11.60;97.10
56478;DHT22;42382;53.210;5.772;2023-11-19T01:44:01;11.60;97.10
56478;DHT22;42382;53.210;5.772;2023-11-19T01:46:26;11.50;97.10
56478;DHT22;42382;53.210;5.772;2023-11-19T01:48:52;11.50;97.10
56478;DHT22;42382;53.210;5.772;2023-11-19T01:51:19;11.50;97.10
56478;DHT22;42382;53.210;5.772;2023-11-19T01:53:45;11.40;97.10
56478;DHT22;42382;53.210;5.772;2023-11-19T01:56:11;11.40;97.10
56478;DHT22;42382;53.210;5.772;2023-11-19T01:58:38;11.30;97.10
56478;DHT22;42382;53.210;5.772;2023-11-19T02:01:05;11.30;97.10
56478;DHT22;42382;53.210;5.772;2023-11-19T02:03:31;11.30;97.10
56478;DHT22;42382;53.210;5.772;2023-11-19T02:05:58;11.20;97.10
56478;DHT22;42382;53.210;5.772;2023-11-19T02:08:23;11.20;97.10
56478;DHT22;42382;53.210;5.772;2023-11-19T02:10:49;11.30;97.20
56478;DHT22;42382;53.210;5.772;2023-11-19T02:13:14;11.30;97.20
56478;DHT22;42382;53.210;5.772;2023-11-19T02:15:41;11.30;97.20
56478;DHT22;42382;53.210;5.772;2023-11-19T02:18:20;11.30;97.20
56478;DHT22;42382;53.210;5.772;2023-11-19T02:20:47;11.30;97.20
56478;DHT22;42382;53.210;5.772;2023-11-19T02:23:13;11.30;97.20
56478;DHT22;42382;53.210;5.772;2023-11-19T02:25:38;11.30;97.20
56478;DHT22;42382;53.210;5.772;2023-11-19T02:28:05;11.20;97.20
56478;DHT22;42382;53.210;5.772;2023-11-19T02:30:31;11.10;97.10
56478;DHT22;42382;53.210;5.772;2023-11-19T02:32:57;11.10;97.10
56478;DHT22;42382;53.210;5.772;2023-11-19T02:35:27;11.10;97.10
56478;DHT22;42382;53.210;5.772;2023-11-19T02:37:53;11.10;97.20
56478;DHT22;42382;53.210;5.772;2023-11-19T02:40:19;11.10;97.20
56478;DHT22;42382;53.210;5.772;2023-11-19T02:42:47;11.20;97.20
56478;DHT22;42382;53.210;5.772;2023-11-19T02:45:13;11.30;97.30
56478;DHT22;42382;53.210;5.772;2023-11-19T02:47:43;11.20;97.20
56478;DHT22;42382;53.210;5.772;2023-11-19T02:50:10;11.30;97.20
56478;DHT22;42382;53.210;5.772;2023-11-19T02:52:40;11.20;97.10
56478;DHT22;42382;53.210;5.772;2023-11-19T02:55:06;11.30;97.30
56478;DHT22;42382;53.210;5.772;2023-11-19T02:57:35;11.40;97.20
56478;DHT22;42382;53.210;5.772;2023-11-19T03:00:00;11.40;97.20
56478;DHT22;42382;53.210;5.772;2023-11-19T03:02:26;11.40;97.20
56478;DHT22;42382;53.210;5.772;2023-11-19T03:04:59;11.40;97.20
56478;DHT22;42382;53.210;5.772;2023-11-19T03:07:25;11.40;97.20
56478;DHT22;42382;53.210;5.772;2023-11-19T03:09:50;11.40;97.20
56478;DHT22;42382;53.210;5.772;2023-11-19T03:12:16;11.40;97.20
56478;DHT22;42382;53.210;5.772;2023-11-19T03:14:41;11.40;97.20
56478;DHT22;42382;53.210;5.772;2023-11-19T03:17:07;11.40;97.10
56478;DHT22;42382;53.210;5.772;2023-11-19T03:19:35;11.40;97.20
56478;DHT22;42382;53.210;5.772;2023-11-19T03:22:01;11.40;97.20
56478;DHT22;42382;53.210;5.772;2023-11-19T03:24:27;11.50;97.20
56478;DHT22;42382;53.210;5.772;2023-11-19T03:26:52;11.50;97.20
56478;DHT22;42382;53.210;5.772;2023-11-19T03:29:18;11.50;97.20
56478;DHT22;42382;53.210;5.772;2023-11-19T03:31:43;11.60;97.20
56478;DHT22;42382;53.210;5.772;2023-11-19T03:34:10;11.60;97.10
56478;DHT22;42382;53.210;5.772;2023-11-19T03:36:35;11.50;97.10
56478;DHT22;42382;53.210;5.772;2023-11-19T03:39:01;11.60;97.10
56478;DHT22;42382;53.210;5.772;2023-11-19T03:41:26;11.60;97.10
56478;DHT22;42382;53.210;5.772;2023-11-19T03:43:52;11.60;97.00
56478;DHT22;42382;53.210;5.772;2023-11-19T03:46:18;11.50;97.00
56478;DHT22;42382;53.210;5.772;2023-11-19T03:48:44;11.50;96.80
56478;DHT22;42382;53.210;5.772;2023-11-19T03:51:11;11.40;96.80
56478;DHT22;42382;53.210;5.772;2023-11-19T03:53:43;11.40;96.70
56478;DHT22;42382;53.210;5.772;2023-11-19T03:56:09;11.30;96.60
56478;DHT22;42382;53.210;5.772;2023-11-19T03:58:35;11.30;96.60
56478;DHT22;42382;53.210;5.772;2023-11-19T04:01:01;11.30;96.60
56478;DHT22;42382;53.210;5.772;2023-11-19T04:03:27;11.20;96.50
56478;DHT22;42382;53.210;5.772;2023-11-19T04:05:53;11.20;96.50
56478;DHT22;42382;53.210;5.772;2023-11-19T04:08:18;11.10;96.40
56478;DHT22;42382;53.210;5.772;2023-11-19T04:10:44;11.00;96.40
56478;DHT22;42382;53.210;5.772;2023-11-19T04:13:10;11.00;96.40
56478;DHT22;42382;53.210;5.772;2023-11-19T04:15:36;10.90;96.40
56478;DHT22;42382;53.210;5.772;2023-11-19T04:18:01;11.00;96.40
56478;DHT22;42382;53.210;5.772;2023-11-19T04:20:27;11.00;96.40
56478;DHT22;42382;53.210;5.772;2023-11-19T04:22:52;11.00;96.40
56478;DHT22;42382;53.210;5.772;2023-11-19T04:25:19;11.00;96.40
56478;DHT22;42382;53.210;5.772;2023-11-19T04:27:44;11.00;96.40
56478;DHT22;42382;53.210;5.772;2023-11-19T04:30:10;11.00;96.40
56478;DHT22;42382;53.210;5.772;2023-11-19T04:32:36;11.00;96.30
56478;DHT22;42382;53.210;5.772;2023-11-19T04:35:02;11.10;96.30
56478;DHT22;42382;53.210;5.772;2023-11-19T04:37:27;11.20;96.20
56478;DHT22;42382;53.210;5.772;2023-11-19T04:39:53;11.20;96.20
56478;DHT22;42382;53.210;5.772;2023-11-19T04:42:18;11.20;96.10
56478;DHT22;42382;53.210;5.772;2023-11-19T04:44:45;11.20;96.00
56478;DHT22;42382;53.210;5.772;2023-11-19T04:47:10;11.20;96.00
56478;DHT22;42382;53.210;5.772;2023-11-19T04:49:42;11.20;96.00
56478;DHT22;42382;53.210;5.772;2023-11-19T04:52:11;11.20;95.80
56478;DHT22;42382;53.210;5.772;2023-11-19T04:54:40;11.20;95.80
56478;DHT22;42382;53.210;5.772;2023-11-19T04:57:13;11.20;95.70
56478;DHT22;42382;53.210;5.772;2023-11-19T04:59:38;11.20;95.70
56478;DHT22;42382;53.210;5.772;2023-11-19T05:02:04;11.20;95.60
56478;DHT22;42382;53.210;5.772;2023-11-19T05:04:30;11.20;95.50
56478;DHT22;42382;53.210;5.772;2023-11-19T05:06:56;11.20;95.40
56478;DHT22;42382;53.210;5.772;2023-11-19T05:09:21;11.20;95.30
56478;DHT22;42382;53.210;5.772;2023-11-19T05:11:47;11.20;95.40
56478;DHT22;42382;53.210;5.772;2023-11-19T05:14:13;11.20;95.10
56478;DHT22;42382;53.210;5.772;2023-11-19T05:16:42;11.20;95.00
56478;DHT22;42382;53.210;5.772;2023-11-19T05:19:10;11.20;95.00
56478;DHT22;42382;53.210;5.772;2023-11-19T05:21:36;11.30;94.80
56478;DHT22;42382;53.210;5.772;2023-11-19T05:24:02;11.20;94.80
56478;DHT22;42382;53.210;5.772;2023-11-19T05:26:30;11.20;94.80
56478;DHT22;42382;53.210;5.772;2023-11-19T05:28:55;11.20;94.40
56478;DHT22;42382;53.210;5.772;2023-11-19T05:31:21;11.20;94.50
56478;DHT22;42382;53.210;5.772;2023-11-19T05:33:46;11.20;94.50
56478;DHT22;42382;53.210;5.772;2023-11-19T05:36:12;11.10;94.50
56478;DHT22;42382;53.210;5.772;2023-11-19T05:38:38;11.10;94.70
56478;DHT22;42382;53.210;5.772;2023-11-19T05:41:04;11.10;94.50
56478;DHT22;42382;53.210;5.772;2023-11-19T05:43:30;11.10;94.50
56478;DHT22;42382;53.210;5.772;2023-11-19T05:45:55;11.10;94.60
56478;DHT22;42382;53.210;5.772;2023-11-19T05:48:21;11.10;94.60
56478;DHT22;42382;53.210;5.772;2023-11-19T05:50:46;11.10;94.50
56478;DHT22;42382;53.210;5.772;2023-11-19T05:53:15;11.10;94.30
56478;DHT22;42382;53.210;5.772;2023-11-19T05:55:40;11.10;94.10
56478;DHT22;42382;53.210;5.772;2023-11-19T05:58:14;11.10;93.80
56478;DHT22;42382;53.210;5.772;2023-11-19T06:00:39;11.20;94.00
56478;DHT22;42382;53.210;5.772;2023-11-19T06:03:06;11.20;94.00
56478;DHT22;42382;53.210;5.772;2023-11-19T06:05:32;11.20;94.10
56478;DHT22;42382;53.210;5.772;2023-11-19T06:07:58;11.10;94.00
56478;DHT22;42382;53.210;5.772;2023-11-19T06:10:23;11.10;94.10
56478;DHT22;42382;53.210;5.772;2023-11-19T06:12:57;11.10;94.00
56478;DHT22;42382;53.210;5.772;2023-11-19T06:15:25;11.10;94.00
56478;DHT22;42382;53.210;5.772;2023-11-19T06:17:52;11.10;94.20
56478;DHT22;42382;53.210;5.772;2023-11-19T06:20:17;11.10;94.20
56478;DHT22;42382;53.210;5.772;2023-11-19T06:22:45;11.10;94.10
56478;DHT22;42382;53.210;5.772;2023-11-19T06:25:11;11.10;94.00
56478;DHT22;42382;53.210;5.772;2023-11-19T06:27:36;11.10;94.00
56478;DHT22;42382;53.210;5.772;2023-11-19T06:30:02;11.10;93.90
56478;DHT22;42382;53.210;5.772;2023-11-19T06:32:27;11.10;93.70
56478;DHT22;42382;53.210;5.772;2023-11-19T06:34:54;11.10;93.60
56478;DHT22;42382;53.210;5.772;2023-11-19T06:37:19;11.10;93.60
56478;DHT22;42382;53.210;5.772;2023-11-19T06:39:45;11.10;93.70
56478;DHT22;42382;53.210;5.772;2023-11-19T06:42:10;11.10;93.80
56478;DHT22;42382;53.210;5.772;2023-11-19T06:44:36;11.00;93.60
56478;DHT22;42382;53.210;5.772;2023-11-19T06:47:01;11.00;93.80
56478;DHT22;42382;53.210;5.772;2023-11-19T06:49:27;11.00;93.70
56478;DHT22;42382;53.210;5.772;2023-11-19T06:51:52;11.00;93.80
56478;DHT22;42382;53.210;5.772;2023-11-19T06:54:18;11.00;93.80
56478;DHT22;42382;53.210;5.772;2023-11-19T06:56:43;11.00;93.90
56478;DHT22;42382;53.210;5.772;2023-11-19T06:59:09;11.00;93.80
56478;DHT22;42382;53.210;5.772;2023-11-19T07:01:35;11.00;93.90
56478;DHT22;42382;53.210;5.772;2023-11-19T07:04:01;11.00;93.70
56478;DHT22;42382;53.210;5.772;2023-11-19T07:06:33;11.00;93.70
56478;DHT22;42382;53.210;5.772;2023-11-19T07:08:58;11.00;93.60
56478;DHT22;42382;53.210;5.772;2023-11-19T07:11:24;11.00;93.50
56478;DHT22;42382;53.210;5.772;2023-11-19T07:13:49;11.00;93.50
56478;DHT22;42382;53.210;5.772;2023-11-19T07:16:15;11.00;93.20
56478;DHT22;42382;53.210;5.772;2023-11-19T07:18:40;10.90;93.40
56478;DHT22;42382;53.210;5.772;2023-11-19T07:21:09;10.90;93.20
56478;DHT22;42382;53.210;5.772;2023-11-19T07:23:35;10.90;93.20
56478;DHT22;42382;53.210;5.772;2023-11-19T07:26:01;11.00;93.40
56478;DHT22;42382;53.210;5.772;2023-11-19T07:28:26;10.90;93.40
56478;DHT22;42382;53.210;5.772;2023-11-19T07:30:54;10.90;93.40
56478;DHT22;42382;53.210;5.772;2023-11-19T07:33:21;10.90;93.40
56478;DHT22;42382;53.210;5.772;2023-11-19T07:35:46;10.90;93.40
56478;DHT22;42382;53.210;5.772;2023-11-19T07:38:12;10.90;93.60
56478;DHT22;42382;53.210;5.772;2023-11-19T07:40:38;10.90;93.60
56478;DHT22;42382;53.210;5.772;2023-11-19T07:43:03;10.90;93.60
56478;DHT22;42382;53.210;5.772;2023-11-19T07:45:29;11.00;93.40
56478;DHT22;42382;53.210;5.772;2023-11-19T07:47:54;11.00;93.30
56478;DHT22;42382;53.210;5.772;2023-11-19T07:50:20;11.00;93.30
56478;DHT22;42382;53.210;5.772;2023-11-19T07:52:45;11.10;93.20
56478;DHT22;42382;53.210;5.772;2023-11-19T07:55:11;11.10;93.20
56478;DHT22;42382;53.210;5.772;2023-11-19T07:57:37;11.10;93.30
56478;DHT22;42382;53.210;5.772;2023-11-19T08:00:03;11.10;93.20
56478;DHT22;42382;53.210;5.772;2023-11-19T08:02:29;11.10;93.20
56478;DHT22;42382;53.210;5.772;2023-11-19T08:04:54;11.20;93.00
56478;DHT22;42382;53.210;5.772;2023-11-19T08:07:23;11.20;93.00
56478;DHT22;42382;53.210;5.772;2023-11-19T08:09:49;11.20;93.00
56478;DHT22;42382;53.210;5.772;2023-11-19T08:12:14;11.20;93.10
56478;DHT22;42382;53.210;5.772;2023-11-19T08:14:41;11.30;93.00
56478;DHT22;42382;53.210;5.772;2023-11-19T08:17:06;11.30;92.70
56478;DHT22;42382;53.210;5.772;2023-11-19T08:19:32;11.30;92.50
56478;DHT22;42382;53.210;5.772;2023-11-19T08:21:57;11.30;92.50
56478;DHT22;42382;53.210;5.772;2023-11-19T08:24:23;11.30;92.40
56478;DHT22;42382;53.210;5.772;2023-11-19T08:26:48;11.30;92.50
56478;DHT22;42382;53.210;5.772;2023-11-19T08:29:14;11.30;92.70
56478;DHT22;42382;53.210;5.772;2023-11-19T08:31:39;11.40;92.70
56478;DHT22;42382;53.210;5.772;2023-11-19T08:34:06;11.40;92.70
56478;DHT22;42382;53.210;5.772;2023-11-19T08:36:34;11.40;92.90
56478;DHT22;42382;53.210;5.772;2023-11-19T08:38:59;11.40;92.80
56478;DHT22;42382;53.210;5.772;2023-11-19T08:41:25;11.40;92.80
56478;DHT22;42382;53.210;5.772;2023-11-19T08:43:50;11.50;92.90
56478;DHT22;42382;53.210;5.772;2023-11-19T08:46:17;11.40;92.90
56478;DHT22;42382;53.210;5.772;2023-11-19T08:48:42;11.40;92.80
56478;DHT22;42382;53.210;5.772;2023-11-19T08:51:08;11.50;92.60
56478;DHT22;42382;53.210;5.772;2023-11-19T08:53:33;11.40;92.70
56478;DHT22;42382;53.210;5.772;2023-11-19T08:55:59;11.50;92.20
56478;DHT22;42382;53.210;5.772;2023-11-19T08:58:25;11.60;92.50
56478;DHT22;42382;53.210;5.772;2023-11-19T09:00:51;11.50;92.10
56478;DHT22;42382;53.210;5.772;2023-11-19T09:03:17;11.60;92.10
56478;DHT22;42382;53.210;5.772;2023-11-19T09:05:42;11.60;91.90
56478;DHT22;42382;53.210;5.772;2023-11-19T09:08:08;11.70;92.20
56478;DHT22;42382;53.210;5.772;2023-11-19T09:10:34;11.70;91.70
56478;DHT22;42382;53.210;5.772;2023-11-19T09:12:59;11.70;91.80
56478;DHT22;42382;53.210;5.772;2023-11-19T09:15:25;11.80;91.90
56478;DHT22;42382;53.210;5.772;2023-11-19T09:17:50;11.80;91.70
56478;DHT22;42382;53.210;5.772;2023-11-19T09:20:16;11.90;91.80
56478;DHT22;42382;53.210;5.772;2023-11-19T09:22:41;11.90;91.50
56478;DHT22;42382;53.210;5.772;2023-11-19T09:25:07;12.10;91.70
56478;DHT22;42382;53.210;5.772;2023-11-19T09:27:33;12.10;91.60
56478;DHT22;42382;53.210;5.772;2023-11-19T09:29:58;12.10;91.50
56478;DHT22;42382;53.210;5.772;2023-11-19T09:32:24;12.10;90.70
56478;DHT22;42382;53.210;5.772;2023-11-19T09:34:50;12.10;91.10
56478;DHT22;42382;53.210;5.772;2023-11-19T09:37:15;12.10;90.80
56478;DHT22;42382;53.210;5.772;2023-11-19T09:39:41;12.10;90.50
56478;DHT22;42382;53.210;5.772;2023-11-19T09:42:09;12.20;90.80
56478;DHT22;42382;53.210;5.772;2023-11-19T09:44:35;12.20;90.90
56478;DHT22;42382;53.210;5.772;2023-11-19T09:47:02;12.20;90.70
56478;DHT22;42382;53.210;5.772;2023-11-19T09:49:28;12.30;90.80
56478;DHT22;42382;53.210;5.772;2023-11-19T09:51:55;12.30;90.10
56478;DHT22;42382;53.210;5.772;2023-11-19T09:54:20;12.30;90.50
56478;DHT22;42382;53.210;5.772;2023-11-19T09:56:46;12.20;90.30
56478;DHT22;42382;53.210;5.772;2023-11-19T09:59:11;12.30;90.60
56478;DHT22;42382;53.210;5.772;2023-11-19T10:01:38;12.20;90.40
56478;DHT22;42382;53.210;5.772;2023-11-19T10:04:03;12.30;90.50
56478;DHT22;42382;53.210;5.772;2023-11-19T10:06:30;12.20;90.70
56478;DHT22;42382;53.210;5.772;2023-11-19T10:08:55;12.20;90.20
56478;DHT22;42382;53.210;5.772;2023-11-19T10:11:21;12.30;90.50
56478;DHT22;42382;53.210;5.772;2023-11-19T10:13:46;12.30;90.60
56478;DHT22;42382;53.210;5.772;2023-11-19T10:16:13;12.30;90.70
56478;DHT22;42382;53.210;5.772;2023-11-19T10:18:48;12.30;90.70
56478;DHT22;42382;53.210;5.772;2023-11-19T10:21:17;12.40;90.80
56478;DHT22;42382;53.210;5.772;2023-11-19T10:26:15;12.40;90.50
56478;DHT22;42382;53.210;5.772;2023-11-19T10:28:41;12.40;90.20
56478;DHT22;42382;53.210;5.772;2023-11-19T10:31:12;12.40;90.20
56478;DHT22;42382;53.210;5.772;2023-11-19T10:33:38;12.40;89.90
56478;DHT22;42382;53.210;5.772;2023-11-19T10:36:03;12.40;89.90
56478;DHT22;42382;53.210;5.772;2023-11-19T10:38:30;12.40;89.90
56478;DHT22;42382;53.210;5.772;2023-11-19T10:40:55;12.40;89.90
56478;DHT22;42382;53.210;5.772;2023-11-19T10:43:21;12.40;90.00
56478;DHT22;42382;53.210;5.772;2023-11-19T10:45:51;12.40;89.90
56478;DHT22;42382;53.210;5.772;2023-11-19T10:48:17;12.40;89.90
56478;DHT22;42382;53.210;5.772;2023-11-19T10:50:44;12.40;89.50
56478;DHT22;42382;53.210;5.772;2023-11-19T10:53:11;12.40;89.70
56478;DHT22;42382;53.210;5.772;2023-11-19T10:55:41;12.40;89.60
56478;DHT22;42382;53.210;5.772;2023-11-19T10:58:09;12.40;89.20
56478;DHT22;42382;53.210;5.772;2023-11-19T11:03:05;12.50;89.50
56478;DHT22;42382;53.210;5.772;2023-11-19T11:05:33;12.40;89.60
56478;DHT22;42382;53.210;5.772;2023-11-19T11:08:00;12.40;89.70
56478;DHT22;42382;53.210;5.772;2023-11-19T11:10:25;12.40;89.80
56478;DHT22;42382;53.210;5.772;2023-11-19T11:12:52;12.40;89.60
56478;DHT22;42382;53.210;5.772;2023-11-19T11:15:27;12.40;89.80
56478;DHT22;42382;53.210;5.772;2023-11-19T11:17:57;12.40;89.60
56478;DHT22;42382;53.210;5.772;2023-11-19T11:20:24;12.40;89.70
56478;DHT22;42382;53.210;5.772;2023-11-19T11:22:55;12.40;89.30
56478;DHT22;42382;53.210;5.772;2023-11-19T11:25:34;12.40;89.50
56478;DHT22;42382;53.210;5.772;2023-11-19T11:28:36;12.50;89.40
56478;DHT22;42382;53.210;5.772;2023-11-19T11:38:21;12.60;90.40
56478;DHT22;42382;53.210;5.772;2023-11-19T11:43:44;12.70;90.60
56478;DHT22;42382;53.210;5.772;2023-11-19T11:46:45;12.70;90.40
56478;DHT22;42382;53.210;5.772;2023-11-19T11:48:55;12.70;90.20
56478;DHT22;42382;53.210;5.772;2023-11-19T11:54:07;12.70;90.00
56478;DHT22;42382;53.210;5.772;2023-11-19T11:56:33;12.70;89.50
56478;DHT22;42382;53.210;5.772;2023-11-19T11:58:59;12.70;89.80
56478;DHT22;42382;53.210;5.772;2023-11-19T12:01:25;12.70;90.00
56478;DHT22;42382;53.210;5.772;2023-11-19T12:03:55;12.70;89.60
56478;DHT22;42382;53.210;5.772;2023-11-19T12:06:21;12.70;89.80
56478;DHT22;42382;53.210;5.772;2023-11-19T12:08:46;12.70;89.60
56478;DHT22;42382;53.210;5.772;2023-11-19T12:11:12;12.60;89.60
56478;DHT22;42382;53.210;5.772;2023-11-19T12:13:54;12.60;89.40
56478;DHT22;42382;53.210;5.772;2023-11-19T12:16:24;12.60;89.40
56478;DHT22;42382;53.210;5.772;2023-11-19T12:18:52;12.60;89.20
56478;DHT22;42382;53.210;5.772;2023-11-19T12:21:30;12.60;89.20
56478;DHT22;42382;53.210;5.772;2023-11-19T12:23:57;12.60;89.60
56478;DHT22;42382;53.210;5.772;2023-11-19T12:26:32;12.60;89.60
56478;DHT22;42382;53.210;5.772;2023-11-19T12:28:58;12.70;89.50
56478;DHT22;42382;53.210;5.772;2023-11-19T12:31:24;12.70;89.30
56478;DHT22;42382;53.210;5.772;2023-11-19T12:33:50;12.70;89.30
56478;DHT22;42382;53.210;5.772;2023-11-19T12:36:16;12.70;89.60
56478;DHT22;42382;53.210;5.772;2023-11-19T12:38:43;12.70;88.90
56478;DHT22;42382;53.210;5.772;2023-11-19T12:41:11;12.80;89.20
56478;DHT22;42382;53.210;5.772;2023-11-19T12:43:37;12.80;88.90
56478;DHT22;42382;53.210;5.772;2023-11-19T12:46:03;12.90;89.20
56478;DHT22;42382;53.210;5.772;2023-11-19T12:48:29;12.90;88.00
56478;DHT22;42382;53.210;5.772;2023-11-19T12:50:56;12.90;88.80
56478;DHT22;42382;53.210;5.772;2023-11-19T12:53:23;12.90;88.80
56478;DHT22;42382;53.210;5.772;2023-11-19T12:55:48;12.90;88.50
56478;DHT22;42382;53.210;5.772;2023-11-19T12:58:33;12.90;88.70
56478;DHT22;42382;53.210;5.772;2023-11-19T13:01:03;12.90;88.60
56478;DHT22;42382;53.210;5.772;2023-11-19T13:03:29;12.80;88.20
56478;DHT22;42382;53.210;5.772;2023-11-19T13:06:01;12.80;88.50
56478;DHT22;42382;53.210;5.772;2023-11-19T13:08:26;12.80;88.10
56478;DHT22;42382;53.210;5.772;2023-11-19T13:10:52;12.80;88.70
56478;DHT22;42382;53.210;5.772;2023-11-19T13:13:18;12.70;88.60
56478;DHT22;42382;53.210;5.772;2023-11-19T13:15:44;12.70;88.50
56478;DHT22;42382;53.210;5.772;2023-11-19T13:18:10;12.60;88.40
56478;DHT22;42382;53.210;5.772;2023-11-19T13:20:36;12.60;88.60
56478;DHT22;42382;53.210;5.772;2023-11-19T13:23:02;12.60;88.80
56478;DHT22;42382;53.210;5.772;2023-11-19T13:25:28;12.50;88.80
56478;DHT22;42382;53.210;5.772;2023-11-19T13:27:54;12.50;88.80
56478;DHT22;42382;53.210;5.772;2023-11-19T13:30:20;12.50;88.90
56478;DHT22;42382;53.210;5.772;2023-11-19T13:32:46;12.40;89.20
56478;DHT22;42382;53.210;5.772;2023-11-19T13:35:14;12.40;89.00
56478;DHT22;42382;53.210;5.772;2023-11-19T13:37:40;12.40;89.20
56478;DHT22;42382;53.210;5.772;2023-11-19T13:40:06;12.40;89.10
56478;DHT22;42382;53.210;5.772;2023-11-19T13:42:32;12.40;89.10
56478;DHT22;42382;53.210;5.772;2023-11-19T13:44:58;12.30;89.20
56478;DHT22;42382;53.210;5.772;2023-11-19T13:47:23;12.40;89.40
56478;DHT22;42382;53.210;5.772;2023-11-19T13:49:49;12.40;89.50
56478;DHT22;42382;53.210;5.772;2023-11-19T13:52:15;12.30;89.30
56478;DHT22;42382;53.210;5.772;2023-11-19T13:54:40;12.40;89.40
56478;DHT22;42382;53.210;5.772;2023-11-19T13:57:06;12.30;89.30
56478;DHT22;42382;53.210;5.772;2023-11-19T13:59:31;12.30;89.30
56478;DHT22;42382;53.210;5.772;2023-11-19T14:02:00;12.30;89.40
56478;DHT22;42382;53.210;5.772;2023-11-19T14:04:25;12.30;89.30
56478;DHT22;42382;53.210;5.772;2023-11-19T14:06:51;12.30;89.10
56478;DHT22;42382;53.210;5.772;2023-11-19T14:09:17;12.20;88.90
56478;DHT22;42382;53.210;5.772;2023-11-19T14:11:43;12.30;89.20
56478;DHT22;42382;53.210;5.772;2023-11-19T14:14:08;12.20;88.80
56478;DHT22;42382;53.210;5.772;2023-11-19T14:16:34;12.20;88.90
56478;DHT22;42382;53.210;5.772;2023-11-19T14:19:00;12.20;88.90
56478;DHT22;42382;53.210;5.772;2023-11-19T14:21:25;12.20;89.20
56478;DHT22;42382;53.210;5.772;2023-11-19T14:23:52;12.20;89.10
56478;DHT22;42382;53.210;5.772;2023-11-19T14:26:17;12.20;89.20
56478;DHT22;42382;53.210;5.772;2023-11-19T14:28:43;12.20;88.80
56478;DHT22;42382;53.210;5.772;2023-11-19T14:31:09;12.20;88.90
56478;DHT22;42382;53.210;5.772;2023-11-19T14:33:34;12.20;89.00
56478;DHT22;42382;53.210;5.772;2023-11-19T14:36:05;12.20;89.10
56478;DHT22;42382;53.210;5.772;2023-11-19T14:38:32;12.10;88.90
56478;DHT22;42382;53.210;5.772;2023-11-19T14:40:58;12.10;89.10
56478;DHT22;42382;53.210;5.772;2023-11-19T14:43:25;12.10;89.10
56478;DHT22;42382;53.210;5.772;2023-11-19T14:45:50;12.10;89.00
56478;DHT22;42382;53.210;5.772;2023-11-19T14:48:16;12.10;89.20
56478;DHT22;42382;53.210;5.772;2023-11-19T14:50:43;12.10;88.80
56478;DHT22;42382;53.210;5.772;2023-11-19T14:53:10;12.10;89.10
56478;DHT22;42382;53.210;5.772;2023-11-19T14:55:35;12.00;89.10
56478;DHT22;42382;53.210;5.772;2023-11-19T14:58:01;12.00;89.30
56478;DHT22;42382;53.210;5.772;2023-11-19T15:00:26;12.00;89.30
56478;DHT22;42382;53.210;5.772;2023-11-19T15:02:52;12.00;89.30
56478;DHT22;42382;53.210;5.772;2023-11-19T15:05:17;12.00;89.30
56478;DHT22;42382;53.210;5.772;2023-11-19T15:07:43;12.00;89.40
56478;DHT22;42382;53.210;5.772;2023-11-19T15:10:08;11.90;89.20
56478;DHT22;42382;53.210;5.772;2023-11-19T15:12:36;11.90;89.20
56478;DHT22;42382;53.210;5.772;2023-11-19T15:15:08;11.90;89.30
56478;DHT22;42382;53.210;5.772;2023-11-19T15:17:39;11.90;89.40
56478;DHT22;42382;53.210;5.772;2023-11-19T15:20:05;11.90;89.60
56478;DHT22;42382;53.210;5.772;2023-11-19T15:22:30;11.90;89.70
56478;DHT22;42382;53.210;5.772;2023-11-19T15:24:56;11.80;90.00
56478;DHT22;42382;53.210;5.772;2023-11-19T15:27:22;11.90;90.20
56478;DHT22;42382;53.210;5.772;2023-11-19T15:29:47;11.80;90.30
56478;DHT22;42382;53.210;5.772;2023-11-19T15:32:14;11.70;90.30
56478;DHT22;42382;53.210;5.772;2023-11-19T15:34:39;11.70;90.50
56478;DHT22;42382;53.210;5.772;2023-11-19T15:37:09;11.70;90.70
56478;DHT22;42382;53.210;5.772;2023-11-19T15:39:38;11.60;90.80
56478;DHT22;42382;53.210;5.772;2023-11-19T15:42:03;11.60;90.90
56478;DHT22;42382;53.210;5.772;2023-11-19T15:44:29;11.60;91.00